Time;durP1;ratioP1;P1;durP2;ratioP2;P2;SDS_P1;SDS_P2;PMS_P1;PMS_P2;Temp;Humidity;BMP_temperature;BMP_pressure;BME280_temperature;BME280_humidity;BME280_pressure;Samples;Min_cycle;Max_cycle;Signal;HPM_P1;HPM_P2
2023/11/03 00:01:53;;;;;;;0.30;0.30;;;9.10;86.50;;;;;;6234674;23;20085;-76
2023/11/03 00:04:19;;;;;;;0.50;0.50;;;9.10;86.50;;;;;;6245329;23;20428;-77
2023/11/03 00:06:45;;;;;;;0.60;0.30;;;9.20;86.50;;;;;;6244643;23;20459;-76
2023/11/03 00:09:14;;;;;;;0.93;0.50;;;9.10;86.40;;;;;;6214727;23;20012;-76
2023/11/03 00:11:41;;;;;;;0.85;0.50;;;9.20;86.50;;;;;;6245001;23;20031;-76
2023/11/03 00:14:07;;;;;;;0.32;0.30;;;9.20;86.50;;;;;;6193330;23;20012;-77
2023/11/03 00:16:33;;;;;;;0.73;0.50;;;9.20;86.50;;;;;;6190890;23;20318;-76
2023/11/03 00:19:00;;;;;;;0.30;0.30;;;9.20;86.50;;;;;;6217697;23;20336;-77
2023/11/03 00:21:27;;;;;;;1.20;0.43;;;9.10;86.50;;;;;;6244596;23;20014;-77
2023/11/03 00:23:53;;;;;;;0.50;0.38;;;9.10;86.60;;;;;;6218446;23;20058;-77
2023/11/03 00:26:19;;;;;;;0.22;0.22;;;9.10;86.70;;;;;;6217536;23;20012;-76
2023/11/03 00:28:48;;;;;;;1.25;0.40;;;9.10;86.70;;;;;;6217719;23;20004;-76
2023/11/03 00:31:14;;;;;;;0.38;0.30;;;9.20;86.80;;;;;;6217938;23;20038;-76
2023/11/03 00:33:40;;;;;;;0.93;0.30;;;9.10;86.80;;;;;;6217790;23;20008;-76
2023/11/03 00:36:06;;;;;;;0.52;0.35;;;9.10;86.80;;;;;;6217651;23;20019;-77
2023/11/03 00:38:32;;;;;;;0.30;0.30;;;9.10;86.70;;;;;;6244751;23;20030;-76
2023/11/03 00:40:58;;;;;;;0.38;0.28;;;9.20;86.70;;;;;;6217828;23;20008;-77
2023/11/03 00:43:24;;;;;;;0.75;0.38;;;9.20;86.70;;;;;;6217951;23;20019;-76
2023/11/03 00:45:50;;;;;;;0.35;0.28;;;9.20;86.70;;;;;;6217593;23;20012;-76
2023/11/03 00:48:17;;;;;;;1.25;0.30;;;9.20;86.70;;;;;;6193183;23;20340;-77
2023/11/03 00:50:43;;;;;;;0.30;0.30;;;9.30;86.70;;;;;;6217403;23;20508;-74
2023/11/03 00:53:09;;;;;;;0.95;0.45;;;9.30;86.80;;;;;;6244986;23;20004;-77
2023/11/03 00:55:35;;;;;;;0.50;0.40;;;9.20;86.70;;;;;;6215571;23;20031;-77
2023/11/03 00:58:03;;;;;;;1.25;0.40;;;9.20;86.70;;;;;;6217602;23;20108;-76
2023/11/03 01:00:34;;;;;;;0.73;0.50;;;9.20;86.80;;;;;;6193348;23;20361;-75
2023/11/03 01:03:00;;;;;;;0.30;0.30;;;9.20;86.90;;;;;;6244429;23;20015;-76
2023/11/03 01:05:26;;;;;;;0.50;0.40;;;9.20;86.90;;;;;;6239178;23;20012;-76
2023/11/03 01:07:52;;;;;;;2.55;0.43;;;9.20;87.00;;;;;;6243949;23;20012;-76
2023/11/03 01:10:18;;;;;;;0.57;0.30;;;9.20;87.10;;;;;;6192323;23;20008;-76
2023/11/03 01:12:45;;;;;;;0.90;0.43;;;9.10;87.10;;;;;;6244821;23;20011;-76
2023/11/03 01:15:13;;;;;;;0.85;0.47;;;9.10;87.10;;;;;;6218821;23;20004;-76
2023/11/03 01:17:39;;;;;;;1.02;0.40;;;9.10;87.20;;;;;;6245787;23;20298;-76
2023/11/03 01:20:12;;;;;;;0.98;0.30;;;9.10;87.20;;;;;;6193843;23;20012;-77
2023/11/03 01:22:40;;;;;;;1.27;0.55;;;9.20;87.20;;;;;;6245947;23;20043;-77
2023/11/03 01:25:06;;;;;;;0.40;0.40;;;9.10;87.20;;;;;;6242603;23;20012;-77
2023/11/03 01:27:32;;;;;;;0.30;0.30;;;9.20;87.30;;;;;;6245171;23;20459;-76
2023/11/03 01:29:58;;;;;;;0.40;0.30;;;9.20;87.20;;;;;;6218575;23;20013;-76
2023/11/03 01:32:24;;;;;;;0.20;0.20;;;9.20;87.30;;;;;;6245772;23;20008;-76
2023/11/03 01:34:50;;;;;;;0.50;0.50;;;9.20;87.20;;;;;;6218446;23;20062;-77
2023/11/03 01:37:16;;;;;;;0.20;0.20;;;9.20;87.20;;;;;;6245479;23;20091;-76
2023/11/03 01:39:42;;;;;;;0.20;0.20;;;9.20;87.20;;;;;;6245492;23;20066;-76
2023/11/03 01:42:07;;;;;;;0.98;0.40;;;9.40;87.30;;;;;;6216089;23;20019;-76
2023/11/03 01:44:34;;;;;;;0.20;0.20;;;9.20;87.20;;;;;;6237334;23;20018;-77
2023/11/03 01:47:00;;;;;;;0.50;0.28;;;9.20;87.20;;;;;;6245905;23;20015;-76
2023/11/03 01:49:25;;;;;;;0.90;0.35;;;9.30;87.30;;;;;;6245094;23;20009;-77
2023/11/03 01:51:52;;;;;;;0.80;0.30;;;9.20;87.20;;;;;;6244708;23;20016;-77
2023/11/03 01:54:18;;;;;;;0.47;0.40;;;9.20;87.20;;;;;;6245048;23;20079;-77
2023/11/03 01:56:44;;;;;;;0.25;0.25;;;9.20;87.20;;;;;;6217024;23;20005;-77
2023/11/03 01:59:11;;;;;;;0.30;0.30;;;9.30;87.30;;;;;;6245090;23;20015;-76
2023/11/03 02:01:37;;;;;;;0.65;0.40;;;9.30;87.20;;;;;;6193149;23;20016;-76
2023/11/03 02:04:04;;;;;;;0.30;0.30;;;9.30;87.20;;;;;;6188757;23;20009;-77
2023/11/03 02:06:30;;;;;;;0.98;0.30;;;9.30;87.20;;;;;;6237267;23;20012;-76
2023/11/03 02:08:56;;;;;;;0.50;0.47;;;9.40;87.10;;;;;;6245377;23;20389;-76
2023/11/03 02:11:25;;;;;;;0.20;0.20;;;9.40;87.10;;;;;;6244968;23;20004;-77
2023/11/03 02:13:51;;;;;;;0.40;0.40;;;9.40;87.10;;;;;;6214109;23;20015;-76
2023/11/03 02:16:17;;;;;;;2.17;0.43;;;9.40;87.00;;;;;;6239129;23;20004;-76
2023/11/03 02:18:42;;;;;;;1.38;0.30;;;9.40;87.00;;;;;;6193338;23;20043;-76
2023/11/03 02:21:08;;;;;;;1.88;0.40;;;9.40;87.00;;;;;;6245086;23;20007;-76
2023/11/03 02:23:35;;;;;;;0.40;0.30;;;9.40;87.00;;;;;;6192755;23;20020;-77
2023/11/03 02:26:03;;;;;;;1.15;0.47;;;9.40;87.10;;;;;;6219189;23;20008;-76
2023/11/03 02:28:28;;;;;;;0.80;0.50;;;9.40;87.10;;;;;;6191215;23;20020;-76
2023/11/03 02:30:54;;;;;;;0.52;0.47;;;9.40;87.10;;;;;;6192837;23;20439;-76
2023/11/03 02:33:20;;;;;;;0.52;0.40;;;9.40;87.00;;;;;;6245367;23;20067;-77
2023/11/03 02:35:48;;;;;;;0.65;0.40;;;9.50;87.60;;;;;;6218517;23;20375;-77
2023/11/03 02:38:16;;;;;;;1.35;0.40;;;9.50;87.00;;;;;;6245493;23;20008;-77
2023/11/03 02:40:45;;;;;;;0.40;0.40;;;9.50;86.90;;;;;;6194138;23;20327;-76
2023/11/03 02:43:11;;;;;;;0.25;0.22;;;9.50;86.80;;;;;;6245444;23;20458;-76
2023/11/03 02:45:37;;;;;;;1.45;0.40;;;9.60;86.80;;;;;;6217815;23;20047;-76
2023/11/03 02:48:03;;;;;;;2.03;0.50;;;9.50;86.70;;;;;;6193446;23;20043;-75
2023/11/03 02:50:29;;;;;;;2.40;0.30;;;9.50;86.70;;;;;;6218533;23;20015;-77
2023/11/03 02:52:54;;;;;;;0.90;0.30;;;9.60;86.70;;;;;;6245406;23;20040;-76
2023/11/03 02:55:20;;;;;;;0.45;0.30;;;9.60;86.80;;;;;;6244703;23;20061;-76
2023/11/03 02:57:46;;;;;;;1.48;0.40;;;9.60;86.80;;;;;;6218234;23;20012;-76
2023/11/03 03:00:13;;;;;;;1.77;0.50;;;9.60;86.80;;;;;;6168299;23;20012;-76
2023/11/03 03:02:39;;;;;;;0.60;0.40;;;9.60;86.80;;;;;;6192972;23;20409;-76
2023/11/03 03:05:05;;;;;;;1.00;0.55;;;9.60;86.70;;;;;;6218085;23;20012;-76
2023/11/03 03:07:31;;;;;;;0.40;0.20;;;9.60;86.70;;;;;;6244853;23;20012;-76
2023/11/03 03:09:57;;;;;;;0.93;0.28;;;9.60;86.60;;;;;;6244767;23;20090;-76
2023/11/03 03:12:23;;;;;;;1.70;0.30;;;9.70;86.60;;;;;;6245235;23;20008;-76
2023/11/03 03:14:48;;;;;;;1.13;0.40;;;9.70;86.70;;;;;;6218405;23;20015;-76
2023/11/03 03:17:14;;;;;;;0.52;0.30;;;9.70;86.70;;;;;;6218117;23;20066;-76
2023/11/03 03:19:40;;;;;;;0.45;0.30;;;9.70;86.60;;;;;;6217593;23;20008;-76
2023/11/03 03:22:05;;;;;;;0.77;0.57;;;9.70;86.60;;;;;;6217676;23;20019;-76
2023/11/03 03:24:31;;;;;;;1.48;0.65;;;9.70;86.50;;;;;;6244558;22;20019;-76
2023/11/03 03:26:57;;;;;;;1.80;0.60;;;9.70;86.50;;;;;;6244412;23;20008;-77
2023/11/03 03:29:23;;;;;;;1.45;0.60;;;9.70;86.40;;;;;;6244616;23;20062;-77
2023/11/03 03:31:49;;;;;;;1.40;0.60;;;9.70;86.40;;;;;;6217547;23;20075;-75
2023/11/03 03:34:15;;;;;;;1.45;0.68;;;9.70;86.40;;;;;;6244697;23;20028;-76
2023/11/03 03:36:40;;;;;;;0.65;0.30;;;9.70;86.30;;;;;;6217858;23;20027;-76
2023/11/03 03:39:06;;;;;;;0.68;0.40;;;9.70;86.40;;;;;;6217766;23;20012;-75
2023/11/03 03:41:32;;;;;;;1.25;0.60;;;9.70;86.50;;;;;;6209654;23;20011;-76
2023/11/03 03:43:57;;;;;;;1.83;0.57;;;9.70;86.50;;;;;;6210257;23;20020;-75
2023/11/03 03:46:23;;;;;;;1.27;0.50;;;9.70;86.40;;;;;;6217667;23;20036;-75
2023/11/03 03:48:50;;;;;;;0.68;0.43;;;9.70;86.40;;;;;;6244393;23;20459;-77
2023/11/03 03:51:15;;;;;;;1.13;0.40;;;9.80;86.40;;;;;;6244851;23;20019;-76
2023/11/03 03:53:41;;;;;;;0.93;0.50;;;9.80;86.40;;;;;;6244997;23;20082;-75
2023/11/03 03:56:07;;;;;;;1.17;0.50;;;9.80;86.40;;;;;;6244713;23;20053;-76
2023/11/03 03:58:33;;;;;;;1.40;0.50;;;9.80;86.40;;;;;;6217903;23;20035;-75
2023/11/03 04:00:58;;;;;;;0.35;0.35;;;9.80;86.30;;;;;;6191901;23;20348;-76
2023/11/03 04:03:24;;;;;;;1.48;0.68;;;9.80;86.30;;;;;;6218158;23;20020;-76
2023/11/03 04:05:50;;;;;;;2.00;0.70;;;9.80;86.30;;;;;;6245255;23;20020;-76
2023/11/03 04:08:15;;;;;;;1.17;0.50;;;9.80;86.30;;;;;;6244638;23;20034;-75
2023/11/03 04:10:41;;;;;;;2.40;0.60;;;9.80;86.30;;;;;;6244655;23;20015;-76
2023/11/03 04:13:07;;;;;;;0.88;0.60;;;9.80;86.40;;;;;;6217939;23;20008;-76
2023/11/03 04:15:33;;;;;;;1.73;0.60;;;9.70;86.30;;;;;;6244486;23;20004;-76
2023/11/03 04:17:58;;;;;;;4.55;0.73;;;9.70;86.40;;;;;;6244239;23;20015;-76
2023/11/03 04:20:24;;;;;;;1.42;0.70;;;9.70;86.50;;;;;;6217677;23;20008;-76
2023/11/03 04:22:50;;;;;;;0.70;0.50;;;9.60;86.50;;;;;;6192627;23;20008;-75
2023/11/03 04:25:17;;;;;;;1.90;0.55;;;9.60;86.60;;;;;;6216776;23;20013;-76
2023/11/03 04:27:43;;;;;;;1.60;0.70;;;9.60;86.80;;;;;;6244283;23;20008;-76
2023/11/03 04:30:09;;;;;;;1.05;0.45;;;9.60;86.90;;;;;;6244597;23;20008;-76
2023/11/03 04:32:35;;;;;;;2.38;0.60;;;9.50;87.00;;;;;;6244291;23;20008;-76
2023/11/03 04:35:00;;;;;;;1.15;0.60;;;9.50;87.10;;;;;;6245062;23;20080;-76
2023/11/03 04:37:26;;;;;;;1.05;0.50;;;9.50;87.30;;;;;;6245075;23;20008;-76
2023/11/03 04:39:52;;;;;;;0.93;0.47;;;9.30;87.40;;;;;;6244597;23;20016;-75
2023/11/03 04:42:18;;;;;;;1.75;0.70;;;9.30;87.50;;;;;;6192566;23;20016;-77
2023/11/03 04:44:43;;;;;;;1.75;0.60;;;9.30;87.70;;;;;;6217519;23;20030;-76
2023/11/03 04:47:09;;;;;;;1.15;0.50;;;9.30;87.90;;;;;;6245422;23;20428;-76
2023/11/03 04:49:35;;;;;;;0.90;0.63;;;9.20;87.90;;;;;;6218526;23;20023;-77
2023/11/03 04:52:01;;;;;;;1.80;0.60;;;9.20;87.90;;;;;;6193662;23;20004;-76
2023/11/03 04:54:26;;;;;;;1.45;0.50;;;9.20;88.00;;;;;;6216368;23;20005;-74
2023/11/03 04:56:53;;;;;;;1.92;0.70;;;9.20;88.10;;;;;;6218964;23;20008;-76
2023/11/03 04:59:19;;;;;;;2.03;0.65;;;9.20;88.20;;;;;;6218719;23;20016;-76
2023/11/03 05:01:45;;;;;;;1.60;0.70;;;9.20;88.20;;;;;;6245506;23;20015;-76
2023/11/03 05:04:11;;;;;;;1.05;0.52;;;9.10;88.20;;;;;;6245469;23;20051;-77
2023/11/03 05:06:37;;;;;;;0.50;0.50;;;9.20;88.20;;;;;;6245891;23;20042;-76
2023/11/03 05:09:03;;;;;;;1.63;0.70;;;9.20;88.20;;;;;;6245535;23;20008;-76
2023/11/03 05:11:29;;;;;;;1.83;0.80;;;9.10;88.20;;;;;;6216457;23;20004;-75
2023/11/03 05:13:56;;;;;;;2.25;0.70;;;9.20;88.30;;;;;;6245492;23;20011;-77
2023/11/03 05:16:22;;;;;;;1.25;0.70;;;9.10;88.30;;;;;;6246248;23;20008;-77
2023/11/03 05:18:47;;;;;;;3.10;0.90;;;9.10;88.30;;;;;;6193565;23;20001;-77
2023/11/03 05:21:14;;;;;;;1.58;0.82;;;9.20;88.40;;;;;;6216920;23;20019;-76
2023/11/03 05:23:41;;;;;;;0.80;0.60;;;9.20;88.40;;;;;;6219963;23;20008;-76
2023/11/03 05:26:10;;;;;;;2.15;0.77;;;9.20;88.40;;;;;;6218859;23;20066;-76
2023/11/03 05:28:36;;;;;;;1.88;0.60;;;9.20;88.30;;;;;;6245573;23;20066;-76
2023/11/03 05:31:02;;;;;;;3.03;0.70;;;9.20;88.30;;;;;;6168839;23;20008;-77
2023/11/03 05:33:27;;;;;;;0.88;0.75;;;9.20;88.30;;;;;;6219334;23;20011;-76
2023/11/03 05:35:53;;;;;;;4.68;1.10;;;9.20;88.20;;;;;;6245522;23;20340;-77
2023/11/03 05:38:19;;;;;;;0.90;0.60;;;9.20;88.20;;;;;;6215517;23;20023;-76
2023/11/03 05:40:44;;;;;;;3.08;0.75;;;9.20;88.20;;;;;;6236723;23;20012;-76
2023/11/03 05:43:10;;;;;;;2.25;0.60;;;9.20;88.20;;;;;;6245536;23;20379;-77
2023/11/03 05:45:36;;;;;;;2.65;0.70;;;9.30;88.30;;;;;;6245401;23;20019;-76
2023/11/03 05:48:02;;;;;;;1.67;0.60;;;9.20;88.20;;;;;;6194102;23;20015;-76
2023/11/03 05:50:28;;;;;;;1.58;0.70;;;9.20;88.20;;;;;;6246159;23;20383;-76
2023/11/03 05:52:54;;;;;;;1.52;0.80;;;9.30;88.30;;;;;;6245727;23;20036;-77
2023/11/03 05:55:20;;;;;;;2.40;0.88;;;9.40;88.30;;;;;;6193580;23;20054;-76
2023/11/03 05:57:45;;;;;;;2.17;0.82;;;9.30;88.20;;;;;;6245355;23;20010;-76
2023/11/03 06:00:12;;;;;;;1.83;0.60;;;9.30;88.20;;;;;;6214918;23;20067;-75
2023/11/03 06:02:37;;;;;;;3.63;0.70;;;9.30;88.30;;;;;;6236966;23;20079;-77
2023/11/03 06:05:05;;;;;;;0.60;0.60;;;9.30;88.30;;;;;;6215901;23;20055;-76
2023/11/03 06:07:33;;;;;;;1.27;0.70;;;9.30;88.30;;;;;;6245447;23;20066;-75
2023/11/03 06:10:00;;;;;;;1.60;0.80;;;9.30;88.30;;;;;;6218844;23;20150;-75
2023/11/03 06:12:25;;;;;;;2.10;0.70;;;9.30;88.30;;;;;;6168551;23;20011;-74
2023/11/03 06:14:51;;;;;;;0.88;0.70;;;9.30;88.30;;;;;;6166616;23;20009;-75
2023/11/03 06:17:17;;;;;;;2.25;0.70;;;9.40;88.30;;;;;;6219191;23;20008;-74
2023/11/03 06:19:42;;;;;;;1.63;0.57;;;9.40;88.10;;;;;;6245514;23;20023;-74
2023/11/03 06:22:08;;;;;;;1.15;0.50;;;9.40;88.20;;;;;;6245246;23;20067;-72
2023/11/03 06:24:34;;;;;;;2.08;0.60;;;9.40;88.20;;;;;;6245673;23;20015;-74
2023/11/03 06:26:59;;;;;;;1.17;0.50;;;9.40;88.30;;;;;;6218548;23;20007;-74
2023/11/03 06:29:26;;;;;;;1.02;0.50;;;9.40;88.40;;;;;;6245236;23;20062;-74
2023/11/03 06:31:52;;;;;;;3.85;0.80;;;9.30;88.50;;;;;;6216569;23;20113;-74
2023/11/03 06:34:18;;;;;;;0.90;0.55;;;9.30;88.60;;;;;;6245098;23;20020;-74
2023/11/03 06:36:44;;;;;;;1.90;0.90;;;9.30;88.70;;;;;;6245706;23;20008;-74
2023/11/03 06:39:10;;;;;;;1.55;0.70;;;9.20;88.70;;;;;;6245573;23;20004;-76
2023/11/03 06:41:36;;;;;;;2.88;0.82;;;9.20;88.80;;;;;;6219572;23;20000;-75
2023/11/03 06:44:05;;;;;;;1.33;0.68;;;9.20;88.90;;;;;;6245919;23;20313;-74
2023/11/03 06:46:31;;;;;;;1.77;0.60;;;9.20;88.90;;;;;;6219761;23;20059;-74
2023/11/03 06:48:57;;;;;;;1.55;0.55;;;9.40;89.10;;;;;;6168471;23;20000;-74
2023/11/03 06:51:23;;;;;;;0.98;0.73;;;9.20;89.00;;;;;;6132754;23;20092;-75
2023/11/03 06:53:49;;;;;;;1.38;0.60;;;9.30;89.00;;;;;;6157362;23;20013;-73
2023/11/03 06:56:15;;;;;;;2.50;0.70;;;9.20;89.00;;;;;;6107621;23;20021;-75
2023/11/03 06:58:41;;;;;;;1.27;0.63;;;9.30;89.20;;;;;;6154339;23;20434;-75
2023/11/03 07:01:06;;;;;;;0.50;0.30;;;9.20;89.10;;;;;;6178717;23;20017;-76
2023/11/03 07:03:32;;;;;;;1.77;0.50;;;9.20;89.20;;;;;;6132681;23;20020;-75
2023/11/03 07:06:00;;;;;;;2.28;0.52;;;9.20;89.30;;;;;;6182251;23;20458;-75
2023/11/03 07:08:26;;;;;;;1.60;0.80;;;9.20;89.30;;;;;;6155173;23;20018;-75
2023/11/03 07:10:52;;;;;;;2.17;0.90;;;9.20;89.40;;;;;;6129022;23;20028;-77
2023/11/03 07:13:17;;;;;;;0.98;0.60;;;9.20;89.40;;;;;;6183077;23;20016;-77
2023/11/03 07:15:43;;;;;;;2.05;0.52;;;9.20;89.40;;;;;;6182122;23;20088;-78
2023/11/03 07:18:09;;;;;;;3.10;0.60;;;9.20;89.50;;;;;;6182686;23;20009;-76
2023/11/03 07:20:35;;;;;;;0.80;0.43;;;9.10;89.40;;;;;;6157022;23;20019;-77
2023/11/03 07:23:01;;;;;;;2.38;0.57;;;9.20;89.50;;;;;;6202963;23;20437;-77
2023/11/03 07:25:27;;;;;;;2.20;0.70;;;9.20;89.50;;;;;;6217996;23;20016;-77
2023/11/03 07:27:53;;;;;;;1.02;0.60;;;9.20;89.60;;;;;;6218253;23;20004;-76
2023/11/03 07:30:22;;;;;;;1.40;0.65;;;9.20;89.60;;;;;;6241824;23;20352;-76
2023/11/03 07:32:48;;;;;;;1.45;0.55;;;9.20;89.60;;;;;;6217168;23;20039;-75
2023/11/03 07:35:14;;;;;;;1.30;0.65;;;9.20;89.60;;;;;;6216179;23;20005;-76
2023/11/03 07:37:40;;;;;;;1.52;0.50;;;9.20;89.60;;;;;;6244916;23;20023;-76
2023/11/03 07:40:07;;;;;;;2.47;0.50;;;9.20;89.60;;;;;;6242822;23;20019;-76
2023/11/03 07:42:33;;;;;;;2.17;0.50;;;9.30;89.70;;;;;;6232530;23;20012;-76
2023/11/03 07:45:00;;;;;;;1.95;0.68;;;9.30;89.70;;;;;;6218499;23;20012;-76
2023/11/03 07:47:27;;;;;;;1.85;0.60;;;9.30;89.60;;;;;;6244613;23;20429;-76
2023/11/03 07:49:53;;;;;;;0.93;0.43;;;9.20;89.60;;;;;;6213028;22;20012;-76
2023/11/03 07:52:19;;;;;;;1.95;0.65;;;9.30;89.60;;;;;;6216350;23;20008;-77
2023/11/03 07:54:44;;;;;;;1.35;0.55;;;9.30;89.60;;;;;;6192921;23;20087;-77
2023/11/03 07:57:11;;;;;;;0.47;0.40;;;9.30;89.60;;;;;;6218127;23;20004;-76
2023/11/03 07:59:37;;;;;;;1.67;0.50;;;9.30;89.60;;;;;;6244735;23;20016;-77
2023/11/03 08:02:03;;;;;;;1.35;0.60;;;9.30;89.60;;;;;;6192732;23;20039;-78
2023/11/03 08:04:28;;;;;;;1.02;0.50;;;9.40;89.60;;;;;;6192832;23;20012;-78
2023/11/03 08:22:20;;;;;;;1.08;0.50;;;9.60;89.20;;;;;;5975839;24;20095;-78
2023/11/03 08:35:20;;;;;;;0.95;0.40;;;9.80;88.80;;;;;;5816617;24;20025;-77
2023/11/03 08:37:47;;;;;;;0.90;0.60;;;9.80;88.70;;;;;;5772216;24;20453;-75
2023/11/03 08:40:16;;;;;;;1.50;0.40;;;9.90;88.70;;;;;;5790121;24;20058;-75
2023/11/03 08:42:44;;;;;;;1.55;0.50;;;10.00;88.60;;;;;;5770543;24;20015;-76
2023/11/03 08:45:11;;;;;;;1.65;0.32;;;10.10;88.50;;;;;;5798981;24;20103;-77
2023/11/03 08:47:36;;;;;;;0.75;0.35;;;10.20;88.30;;;;;;5783008;24;20027;-77
2023/11/03 08:50:06;;;;;;;1.92;0.50;;;10.30;88.20;;;;;;5854956;24;20022;-77
2023/11/03 08:52:33;;;;;;;1.58;0.73;;;10.40;88.10;;;;;;5973303;23;20032;-77
2023/11/03 08:54:58;;;;;;;2.40;0.60;;;10.40;88.00;;;;;;5962358;24;20044;-77
2023/11/03 08:57:24;;;;;;;2.08;0.77;;;10.50;87.90;;;;;;5938336;24;20081;-77
2023/11/03 08:59:51;;;;;;;2.70;0.80;;;10.50;87.70;;;;;;5932329;24;20445;-77
2023/11/03 09:02:17;;;;;;;2.00;0.80;;;10.60;87.60;;;;;;5983838;23;20012;-76
2023/11/03 09:04:42;;;;;;;2.28;0.70;;;10.60;87.50;;;;;;5996126;23;20014;-75
2023/11/03 09:07:09;;;;;;;2.03;0.60;;;10.70;87.60;;;;;;6045184;23;20017;-76
2023/11/03 09:09:35;;;;;;;1.85;0.50;;;10.80;87.60;;;;;;6143731;23;20472;-75
2023/11/03 09:12:02;;;;;;;0.95;0.55;;;10.80;87.50;;;;;;6156617;23;20009;-76
2023/11/03 09:14:28;;;;;;;0.80;0.57;;;10.80;87.40;;;;;;6156497;23;20021;-76
2023/11/03 09:16:54;;;;;;;1.70;0.75;;;10.80;87.40;;;;;;6131978;23;20068;-77
2023/11/03 09:19:20;;;;;;;1.17;0.60;;;10.80;87.40;;;;;;6181513;23;20013;-77
2023/11/03 09:21:48;;;;;;;2.58;1.10;;;10.80;87.30;;;;;;6132023;23;20013;-77
2023/11/03 09:24:16;;;;;;;2.63;0.75;;;10.90;87.40;;;;;;6181739;23;20013;-78
2023/11/03 09:26:48;;;;;;;3.00;0.70;;;11.00;87.50;;;;;;6199386;23;20024;-78
2023/11/03 09:58:44;;;;;;;1.10;0.60;;;11.10;86.90;;;;;;5975112;23;20023;-78
